createdAt,value
2023-04-21T00:02:06.539Z,4.03
2023-04-21T00:04:35.980Z,4.03
2023-04-21T00:07:04.563Z,3.70
2023-04-21T00:09:32.831Z,4.80
2023-04-21T00:12:01.581Z,3.25
2023-04-21T00:14:29.835Z,4.00
2023-04-21T00:17:00.129Z,3.22
2023-04-21T00:19:30.244Z,3.08
2023-04-21T00:22:01.338Z,3.10
2023-04-21T00:24:29.560Z,3.10
2023-04-21T00:26:57.809Z,2.95
2023-04-21T00:29:26.100Z,2.72
2023-04-21T00:31:54.344Z,3.15
2023-04-21T00:34:22.606Z,2.80
2023-04-21T00:36:52.224Z,2.28
2023-04-21T00:39:20.598Z,2.33
2023-04-21T00:41:48.947Z,2.63
2023-04-21T00:44:17.161Z,3.42
2023-04-21T00:46:45.438Z,2.42
2023-04-21T00:49:13.833Z,4.28
2023-04-21T00:51:42.344Z,3.20
2023-04-21T00:54:13.479Z,3.40
2023-04-21T00:56:41.734Z,2.95
2023-04-21T00:59:09.982Z,3.95
2023-04-21T01:01:40.052Z,4.43
2023-04-21T01:04:10.334Z,8.10
2023-04-21T01:06:39.187Z,4.00
2023-04-21T01:09:07.412Z,3.45
2023-04-21T01:11:36.945Z,3.92
2023-04-21T01:14:05.211Z,3.67
2023-04-21T01:16:34.532Z,4.97
2023-04-21T01:19:05.263Z,5.20
2023-04-21T01:21:41.626Z,5.13
2023-04-21T01:24:10.283Z,4.18
2023-04-21T01:26:38.580Z,4.95
2023-04-21T01:29:06.974Z,6.00
2023-04-21T01:31:35.345Z,5.70
2023-04-21T01:34:05.603Z,4.60
2023-04-21T01:36:33.976Z,5.05
2023-04-21T01:39:04.227Z,4.85
2023-04-21T01:41:32.502Z,4.43
2023-04-21T01:44:01.235Z,6.78
2023-04-21T01:46:29.484Z,6.80
2023-04-21T01:48:57.757Z,6.78
2023-04-21T01:51:27.165Z,7.20
2023-04-21T01:53:55.387Z,7.47
2023-04-21T01:56:25.050Z,7.93
2023-04-21T01:58:53.641Z,5.70
2023-04-21T02:01:22.161Z,6.15
2023-04-21T02:03:50.520Z,6.93
2023-04-21T02:06:19.051Z,5.85
2023-04-21T02:08:47.205Z,7.72
2023-04-21T02:11:15.582Z,7.00
2023-04-21T02:13:45.154Z,6.65
2023-04-21T02:16:14.353Z,6.47
2023-04-21T02:18:44.721Z,6.68
2023-04-21T02:21:13.019Z,7.53
2023-04-21T02:23:41.330Z,8.27
2023-04-21T02:26:09.721Z,8.13
2023-04-21T02:28:37.863Z,7.35
2023-04-21T02:31:07.534Z,8.30
2023-04-21T02:33:36.019Z,7.25
2023-04-21T02:36:04.266Z,7.72
2023-04-21T02:38:32.420Z,6.50
2023-04-21T02:41:00.634Z,8.38
2023-04-21T02:43:28.858Z,7.97
2023-04-21T02:45:57.101Z,9.65
2023-04-21T02:48:26.932Z,7.40
2023-04-21T02:50:55.255Z,7.00
2023-04-21T02:53:23.593Z,8.68
2023-04-21T02:55:51.791Z,7.22
2023-04-21T02:58:20.230Z,7.38
2023-04-21T03:00:48.444Z,6.97
2023-04-21T03:03:17.390Z,7.90
2023-04-21T03:05:47.153Z,6.97
2023-04-21T03:08:15.528Z,6.97
2023-04-21T03:10:43.704Z,6.18
2023-04-21T03:13:11.912Z,6.32
2023-04-21T03:15:40.131Z,7.55
2023-04-21T03:18:08.376Z,7.35
2023-04-21T03:20:36.748Z,7.63
2023-04-21T03:23:06.568Z,10.10
2023-04-21T03:25:34.901Z,8.20
2023-04-21T03:28:03.179Z,9.85
2023-04-21T03:30:31.418Z,9.70
2023-04-21T03:32:59.858Z,9.27
2023-04-21T03:35:28.315Z,9.30
2023-04-21T03:37:56.584Z,10.85
2023-04-21T03:40:26.476Z,9.93
2023-04-21T03:42:54.838Z,9.10
2023-04-21T03:45:24.183Z,9.73
2023-04-21T03:47:55.901Z,10.65
2023-04-21T03:50:24.569Z,9.77
2023-04-21T03:52:52.707Z,11.65
2023-04-21T03:55:20.910Z,11.32
2023-04-21T03:57:51.168Z,9.82
2023-04-21T04:00:19.562Z,10.20
2023-04-21T04:02:47.924Z,11.40
2023-04-21T04:05:16.351Z,10.55
2023-04-21T04:07:47.065Z,11.10
2023-04-21T04:10:15.310Z,15.15
2023-04-21T04:12:43.544Z,13.65
2023-04-21T04:15:13.401Z,11.75
2023-04-21T04:17:41.617Z,10.13
2023-04-21T04:20:10.481Z,9.85
2023-04-21T04:22:38.734Z,7.65
2023-04-21T04:25:07.649Z,6.60
2023-04-21T04:27:36.132Z,7.80
2023-04-21T04:30:05.660Z,6.38
2023-04-21T04:32:38.207Z,7.95
2023-04-21T04:35:06.894Z,11.50
2023-04-21T04:37:36.899Z,13.07
2023-04-21T04:40:07.029Z,12.00
2023-04-21T04:42:36.825Z,11.77
2023-04-21T04:45:06.287Z,12.60
2023-04-21T04:47:35.972Z,12.35
2023-04-21T04:50:04.390Z,16.15
2023-04-21T04:52:32.834Z,12.55
2023-04-21T04:55:01.071Z,8.25
2023-04-21T04:57:29.451Z,9.05
2023-04-21T04:59:57.785Z,4.40
2023-04-21T05:02:26.120Z,4.25
2023-04-21T05:04:55.951Z,1.63
2023-04-21T05:07:24.318Z,4.10
2023-04-21T05:09:52.491Z,6.15
2023-04-21T05:12:20.670Z,8.48
2023-04-21T05:14:48.910Z,6.47
2023-04-21T05:17:17.172Z,6.47
2023-04-21T05:19:45.346Z,4.82
2023-04-21T05:22:15.004Z,3.80
2023-04-21T05:24:44.092Z,2.90
2023-04-21T05:27:12.368Z,2.88
2023-04-21T05:29:40.691Z,2.20
2023-04-21T05:32:09.273Z,4.22
2023-04-21T05:34:37.520Z,2.80
2023-04-21T05:37:06.026Z,5.07
2023-04-21T05:39:35.638Z,6.13
2023-04-21T05:42:03.876Z,5.93
2023-04-21T05:44:32.107Z,7.97
2023-04-21T05:47:00.307Z,8.57
2023-04-21T05:49:28.467Z,7.03
2023-04-21T05:51:56.678Z,8.80
2023-04-21T05:54:24.834Z,15.25
2023-04-21T05:56:54.470Z,7.40
2023-04-21T05:59:22.712Z,10.48
2023-04-21T06:01:51.378Z,7.07
2023-04-21T06:04:20.109Z,9.73
2023-04-21T06:06:48.790Z,8.52
2023-04-21T06:09:16.959Z,6.88
2023-04-21T06:11:45.179Z,8.10
2023-04-21T06:14:14.796Z,7.45
2023-04-21T06:16:43.125Z,9.18
2023-04-21T06:19:11.333Z,5.55
2023-04-21T06:21:39.514Z,5.78
2023-04-21T06:24:08.381Z,6.03
2023-04-21T06:26:36.729Z,5.85
2023-04-21T06:29:04.992Z,5.68
2023-04-21T06:31:34.681Z,6.95
2023-04-21T06:34:02.889Z,4.88
2023-04-21T06:36:31.072Z,4.80
2023-04-21T06:38:59.234Z,5.80
2023-04-21T06:41:27.598Z,5.05
2023-04-21T06:43:55.812Z,4.20
2023-04-21T06:46:24.021Z,3.03
2023-04-21T06:48:53.688Z,4.53
2023-04-21T06:51:21.854Z,3.72
2023-04-21T06:53:50.070Z,3.65
2023-04-21T06:56:18.295Z,3.72
2023-04-21T06:58:47.225Z,4.03
2023-04-21T07:01:15.557Z,4.30
2023-04-21T07:03:43.900Z,5.22
2023-04-21T07:06:13.777Z,5.45
2023-04-21T07:08:42.286Z,6.78
2023-04-21T07:11:10.522Z,4.30
2023-04-21T07:13:38.709Z,4.47
2023-04-21T07:16:07.360Z,4.63
2023-04-21T07:18:35.691Z,3.33
2023-04-21T07:21:03.881Z,3.13
2023-04-21T07:23:33.442Z,3.38
2023-04-21T07:26:01.663Z,4.20
2023-04-21T07:28:29.892Z,3.47
2023-04-21T07:30:58.120Z,3.83
2023-04-21T07:33:26.583Z,3.63
2023-04-21T07:35:54.745Z,3.75
2023-04-21T07:38:22.945Z,4.13
2023-04-21T07:40:52.744Z,3.97
2023-04-21T07:43:20.927Z,2.47
2023-04-21T07:45:49.135Z,3.28
2023-04-21T07:48:17.456Z,3.25
2023-04-21T07:50:45.670Z,3.38
2023-04-21T07:53:13.836Z,3.45
2023-04-21T07:55:42.021Z,2.95
2023-04-21T07:58:11.621Z,3.25
2023-04-21T08:00:39.809Z,2.95
2023-04-21T08:03:08.223Z,2.53
2023-04-21T08:05:40.178Z,3.22
2023-04-21T08:08:09.506Z,3.70
2023-04-21T08:10:37.729Z,2.50
2023-04-21T08:13:06.635Z,2.28
2023-04-21T08:15:36.373Z,5.10
2023-04-21T08:18:04.755Z,4.32
2023-04-21T08:20:33.157Z,2.90
2023-04-21T08:23:01.429Z,2.17
2023-04-21T08:25:29.676Z,1.95
2023-04-21T08:27:57.893Z,1.92
2023-04-21T08:30:28.548Z,2.20
2023-04-21T08:32:58.268Z,2.42
2023-04-21T08:35:26.718Z,2.75
2023-04-21T08:37:54.983Z,3.20
2023-04-21T08:40:26.937Z,1.77
2023-04-21T08:42:56.012Z,1.95
2023-04-21T08:45:26.414Z,1.90
2023-04-21T08:48:00.219Z,2.05
2023-04-21T08:50:30.076Z,1.65
2023-04-21T08:52:59.059Z,3.17
2023-04-21T08:55:30.237Z,2.13
2023-04-21T08:57:58.546Z,1.58
2023-04-21T09:00:26.850Z,2.67
2023-04-21T09:03:00.845Z,1.75
2023-04-21T09:05:32.785Z,2.55
2023-04-21T09:08:10.387Z,1.90
2023-04-21T09:10:46.706Z,1.75
2023-04-21T09:13:15.558Z,1.30
2023-04-21T09:15:45.312Z,1.40
2023-04-21T09:18:16.451Z,2.90
2023-04-21T09:20:48.575Z,1.63
2023-04-21T09:23:16.982Z,1.77
2023-04-21T09:25:46.761Z,1.25
2023-04-21T09:28:16.496Z,1.88
2023-04-21T09:30:44.738Z,1.45
2023-04-21T09:33:28.021Z,2.50
2023-04-21T09:36:03.654Z,1.73
2023-04-21T09:38:31.916Z,1.83
2023-04-21T09:41:00.452Z,2.13
2023-04-21T09:43:28.644Z,1.75
2023-04-21T09:45:59.089Z,1.60
2023-04-21T09:48:30.830Z,1.70
2023-04-21T09:53:35.811Z,2.05
2023-04-21T09:56:05.613Z,3.40
2023-04-21T09:58:38.614Z,1.73
2023-04-21T10:01:08.540Z,1.23
2023-04-21T10:03:39.903Z,1.83
2023-04-21T10:06:10.231Z,1.23
2023-04-21T10:08:39.079Z,2.25
2023-04-21T10:11:08.228Z,1.50
2023-04-21T10:13:38.083Z,1.60
2023-04-21T10:16:07.906Z,1.30
2023-04-21T10:18:38.747Z,1.42
2023-04-21T10:21:10.371Z,1.08
2023-04-21T10:23:40.428Z,1.73
2023-04-21T10:26:15.205Z,2.30
2023-04-21T10:28:45.440Z,2.42
2023-04-21T10:31:21.787Z,3.17
2023-04-21T10:34:18.817Z,2.47
2023-04-21T10:37:19.611Z,0.95
2023-04-21T10:39:54.694Z,2.30
2023-04-21T10:42:25.566Z,2.03
2023-04-21T10:44:55.507Z,2.67
2023-04-21T10:47:27.413Z,4.00
2023-04-21T10:49:58.421Z,1.35
2023-04-21T10:52:34.568Z,0.80
2023-04-21T10:55:12.646Z,1.63
2023-04-21T10:57:44.115Z,1.90
2023-04-21T11:00:16.948Z,2.13
2023-04-21T11:02:45.941Z,3.63
2023-04-21T11:05:15.694Z,3.05
2023-04-21T11:07:46.074Z,3.20
2023-04-21T11:10:14.959Z,2.50
2023-04-21T11:12:43.183Z,2.05
2023-04-21T11:15:13.363Z,2.00
2023-04-21T11:17:43.802Z,4.47
2023-04-21T11:20:12.364Z,2.78
2023-04-21T11:22:40.648Z,3.63
2023-04-21T11:25:19.078Z,2.45
2023-04-21T11:27:55.911Z,2.72
2023-04-21T11:30:32.825Z,3.58
2023-04-21T11:33:01.280Z,2.58
2023-04-21T11:35:29.500Z,2.90
2023-04-21T11:37:58.032Z,2.08
2023-04-21T11:40:27.644Z,1.90
2023-04-21T11:42:56.133Z,1.63
2023-04-21T11:45:24.380Z,1.98
2023-04-21T11:47:52.593Z,1.67
2023-04-21T11:50:33.323Z,0.90
2023-04-21T11:53:03.789Z,2.00
2023-04-21T11:55:34.748Z,1.58
2023-04-21T11:58:03.472Z,2.25
2023-04-21T12:00:33.470Z,1.75
2023-04-21T12:03:01.765Z,1.73
2023-04-21T12:05:36.557Z,1.92
2023-04-21T12:08:06.330Z,2.38
2023-04-21T12:10:36.069Z,2.25
2023-04-21T12:13:04.235Z,1.80
2023-04-21T12:15:32.438Z,2.20
2023-04-21T12:18:00.666Z,2.40
2023-04-21T12:20:30.834Z,2.60
2023-04-21T12:22:59.380Z,2.78
2023-04-21T12:25:27.856Z,2.05
2023-04-21T12:27:59.843Z,2.78
2023-04-21T12:30:28.110Z,2.97
2023-04-21T12:32:56.360Z,2.80
2023-04-21T12:35:25.074Z,2.55
2023-04-21T12:37:54.470Z,4.38
2023-04-21T12:40:22.956Z,3.05
2023-04-21T12:42:51.389Z,2.30
2023-04-21T12:45:21.135Z,3.60
2023-04-21T12:47:49.935Z,2.47
2023-04-21T12:50:18.592Z,2.80
2023-04-21T12:52:46.798Z,2.53
2023-04-21T12:55:15.059Z,3.13
2023-04-21T12:57:43.255Z,2.22
2023-04-21T13:00:12.986Z,2.50
2023-04-21T13:02:42.718Z,2.75
2023-04-21T13:05:12.796Z,2.13
2023-04-21T13:07:41.510Z,2.45
2023-04-21T13:10:11.178Z,3.53
2023-04-21T13:12:39.417Z,2.20
2023-04-21T13:15:08.722Z,2.10
2023-04-21T13:17:36.989Z,1.75
2023-04-21T13:20:08.326Z,1.40
2023-04-21T13:22:36.648Z,1.33
2023-04-21T13:25:05.613Z,2.75
2023-04-21T13:27:34.493Z,1.70
2023-04-21T13:30:02.809Z,2.00
2023-04-21T13:32:31.046Z,2.78
2023-04-21T13:34:59.220Z,1.77
2023-04-21T13:37:28.931Z,2.20
2023-04-21T13:39:57.171Z,2.17
2023-04-21T13:42:25.357Z,3.33
2023-04-21T13:44:53.697Z,1.83
2023-04-21T13:47:22.031Z,1.13
2023-04-21T13:49:51.580Z,1.00
2023-04-21T13:52:19.775Z,1.25
2023-04-21T13:54:49.414Z,0.75
2023-04-21T13:57:17.699Z,1.38
2023-04-21T13:59:46.029Z,3.03
2023-04-21T14:02:14.389Z,2.03
2023-04-21T14:04:43.058Z,1.95
2023-04-21T14:07:12.418Z,3.28
2023-04-21T14:09:40.630Z,2.78
2023-04-21T14:12:10.425Z,3.50
2023-04-21T14:14:39.400Z,3.17
2023-04-21T14:17:08.521Z,3.03
2023-04-21T14:19:37.114Z,2.70
2023-04-21T14:22:05.456Z,2.63
2023-04-21T14:24:33.662Z,3.30
2023-04-21T14:27:02.151Z,2.90
2023-04-21T14:29:32.161Z,2.85
2023-04-21T14:32:00.848Z,3.13
2023-04-21T14:34:29.121Z,3.40
2023-04-21T14:36:58.380Z,2.90
2023-04-21T14:39:26.645Z,2.80
2023-04-21T14:41:54.854Z,2.97
2023-04-21T14:44:23.162Z,3.72
2023-04-21T14:47:05.609Z,4.03
2023-04-21T14:49:37.447Z,2.95
2023-04-21T14:52:05.725Z,4.40
2023-04-21T14:54:33.968Z,3.63
2023-04-21T14:57:14.789Z,3.00
2023-04-21T14:59:47.012Z,3.13
2023-04-21T15:02:17.367Z,3.40
2023-04-21T15:04:45.799Z,5.00
2023-04-21T15:07:14.675Z,3.28
2023-04-21T15:09:45.811Z,3.08
2023-04-21T15:12:14.751Z,3.77
2023-04-21T15:14:43.078Z,4.28
2023-04-21T15:17:11.687Z,4.03
2023-04-21T15:19:41.350Z,4.07
2023-04-21T15:22:09.972Z,4.68
2023-04-21T15:24:38.175Z,3.80
2023-04-21T15:27:06.454Z,4.75
2023-04-21T15:29:34.816Z,3.83
2023-04-21T15:32:03.446Z,3.85
2023-04-21T15:34:31.701Z,3.05
2023-04-21T15:37:01.280Z,2.80
2023-04-21T15:39:29.534Z,3.45
2023-04-21T15:41:59.311Z,2.75
2023-04-21T15:44:27.681Z,2.20
2023-04-21T15:46:56.101Z,2.25
2023-04-21T15:49:26.005Z,3.22
2023-04-21T15:51:54.799Z,2.55
2023-04-21T15:54:24.536Z,4.13
2023-04-21T15:56:52.740Z,2.13
2023-04-21T15:59:22.422Z,2.17
2023-04-21T16:01:53.252Z,2.10
2023-04-21T16:04:21.823Z,3.38
2023-04-21T16:06:50.394Z,3.22
2023-04-21T16:09:20.242Z,3.42
2023-04-21T16:11:51.473Z,2.90
2023-04-21T16:16:48.453Z,3.22
2023-04-21T16:19:17.402Z,3.47
2023-04-21T16:21:45.644Z,3.25
2023-04-21T16:24:13.980Z,2.60
2023-04-21T16:26:42.286Z,2.85
2023-04-21T16:29:11.986Z,4.25
2023-04-21T16:31:40.296Z,6.03
2023-04-21T16:34:08.638Z,4.13
2023-04-21T16:36:37.131Z,3.20
2023-04-21T16:39:05.871Z,3.95
2023-04-21T16:41:34.273Z,3.40
2023-04-21T16:44:02.794Z,4.47
2023-04-21T16:46:32.567Z,3.67
2023-04-21T16:49:01.028Z,3.78
2023-04-21T16:51:29.446Z,5.85
2023-04-21T16:53:57.672Z,3.35
2023-04-21T16:56:25.959Z,5.78
2023-04-21T16:58:54.625Z,5.05
2023-04-21T17:01:22.830Z,4.47
2023-04-21T17:03:52.732Z,3.13
2023-04-21T17:06:21.916Z,3.60
2023-04-21T17:08:50.156Z,2.80
2023-04-21T17:11:18.404Z,2.80
2023-04-21T17:13:46.684Z,3.60
2023-04-21T17:16:15.216Z,4.13
2023-04-21T17:18:43.535Z,3.10
2023-04-21T17:21:13.218Z,4.32
2023-04-21T17:23:41.528Z,3.42
2023-04-21T17:26:11.618Z,3.13
2023-04-21T17:31:15.663Z,3.83
2023-04-21T17:33:44.439Z,4.30
2023-04-21T17:36:14.258Z,4.90
2023-04-21T17:38:43.184Z,3.92
2023-04-21T17:41:11.615Z,4.30
2023-04-21T17:43:40.082Z,3.72
2023-04-21T17:46:08.610Z,3.63
2023-04-21T17:48:37.281Z,3.30
2023-04-21T17:51:05.761Z,5.03
2023-04-21T17:53:35.480Z,4.85
2023-04-21T17:56:03.833Z,4.20
2023-04-21T17:58:32.085Z,3.35
2023-04-21T18:01:00.548Z,4.15
2023-04-21T18:03:29.417Z,3.83
2023-04-21T18:05:57.845Z,4.07
2023-04-21T18:08:26.988Z,3.67
2023-04-21T18:10:57.009Z,4.28
2023-04-21T18:13:25.226Z,5.78
2023-04-21T18:15:53.884Z,3.45
2023-04-21T18:18:22.082Z,4.65
2023-04-21T18:20:50.334Z,4.60
2023-04-21T18:23:18.646Z,4.05
2023-04-21T18:25:47.487Z,4.10
2023-04-21T18:28:17.174Z,4.22
2023-04-21T18:30:45.611Z,5.85
2023-04-21T18:33:13.919Z,4.25
2023-04-21T18:35:43.453Z,4.22
2023-04-21T18:38:13.552Z,4.85
2023-04-21T18:40:41.903Z,5.70
2023-04-21T18:43:11.138Z,4.35
2023-04-21T18:45:40.788Z,5.90
2023-04-21T18:48:09.235Z,4.05
2023-04-21T18:50:40.102Z,6.05
2023-04-21T18:53:09.558Z,4.50
2023-04-21T18:55:38.013Z,5.10
2023-04-21T18:58:06.407Z,4.50
2023-04-21T19:00:37.557Z,4.28
2023-04-21T19:05:37.721Z,11.38
2023-04-21T19:08:06.160Z,8.50
2023-04-21T19:10:35.801Z,10.20
2023-04-21T19:13:04.387Z,7.47
2023-04-21T19:15:32.610Z,7.40
2023-04-21T19:18:01.223Z,9.43
2023-04-21T19:20:32.435Z,8.18
2023-04-21T19:23:01.621Z,6.57
2023-04-21T19:25:30.036Z,4.72
2023-04-21T19:27:58.752Z,4.85
2023-04-21T19:30:27.053Z,5.05
2023-04-21T19:32:55.938Z,3.47
2023-04-21T19:35:24.255Z,4.50
2023-04-21T19:37:54.058Z,3.58
2023-04-21T19:40:22.881Z,2.85
2023-04-21T19:42:51.136Z,4.22
2023-04-21T19:45:19.295Z,3.17
2023-04-21T19:47:47.719Z,6.45
2023-04-21T19:50:16.060Z,5.20
2023-04-21T19:52:44.578Z,4.30
2023-04-21T19:55:14.864Z,5.60
2023-04-21T19:57:43.118Z,8.38
2023-04-21T20:00:12.764Z,7.88
2023-04-21T20:02:41.202Z,5.70
2023-04-21T20:05:10.405Z,3.50
2023-04-21T20:07:39.772Z,4.45
2023-04-21T20:10:09.151Z,4.18
2023-04-21T20:12:38.767Z,3.92
2023-04-21T20:15:08.352Z,4.70
2023-04-21T20:17:36.980Z,3.80
2023-04-21T20:20:07.118Z,3.33
2023-04-21T20:22:35.378Z,3.80
2023-04-21T20:25:04.374Z,5.15
2023-04-21T20:27:32.936Z,7.07
2023-04-21T20:30:02.754Z,5.05
2023-04-21T20:32:31.523Z,3.88
2023-04-21T20:34:59.754Z,5.93
2023-04-21T20:37:28.035Z,4.47
2023-04-21T20:39:57.139Z,3.60
2023-04-21T20:42:25.383Z,2.15
2023-04-21T20:44:53.668Z,2.85
2023-04-21T20:47:24.168Z,2.60
2023-04-21T20:49:52.503Z,2.65
2023-04-21T20:52:20.729Z,4.38
2023-04-21T20:54:49.044Z,4.00
2023-04-21T20:57:17.544Z,4.72
2023-04-21T20:59:45.805Z,3.58
2023-04-21T21:02:14.134Z,5.32
2023-04-21T21:04:44.148Z,3.22
2023-04-21T21:07:12.366Z,2.10
2023-04-21T21:09:40.958Z,3.78
2023-04-21T21:12:09.406Z,5.63
2023-04-21T21:14:37.660Z,4.38
2023-04-21T21:17:06.052Z,3.83
2023-04-21T21:19:34.294Z,3.90
2023-04-21T21:22:04.323Z,8.65
2023-04-21T21:24:32.993Z,6.85
2023-04-21T21:27:01.560Z,6.82
2023-04-21T21:29:30.618Z,3.25
2023-04-21T21:31:58.836Z,3.63
2023-04-21T21:34:27.103Z,3.33
2023-04-21T21:36:55.348Z,2.85
2023-04-21T21:39:25.264Z,4.30
2023-04-21T21:41:53.521Z,3.28
2023-04-21T21:44:22.058Z,3.05
2023-04-21T21:46:51.249Z,2.20
2023-04-21T21:49:19.646Z,2.92
2023-04-21T21:51:47.898Z,3.15
2023-04-21T21:54:16.317Z,2.67
2023-04-21T21:56:45.949Z,2.63
2023-04-21T21:59:14.192Z,2.30
2023-04-21T22:01:43.127Z,2.70
2023-04-21T22:04:11.384Z,2.20
2023-04-21T22:06:39.762Z,1.50
2023-04-21T22:09:08.163Z,2.05
2023-04-21T22:11:37.284Z,4.88
2023-04-21T22:14:22.166Z,2.05
2023-04-21T22:16:52.691Z,2.67
2023-04-21T22:19:21.520Z,3.63
2023-04-21T22:21:49.834Z,1.92
2023-04-21T22:24:18.106Z,3.92
2023-04-21T22:26:46.550Z,5.25
2023-04-21T22:29:16.180Z,3.92
2023-04-21T22:31:44.635Z,5.35
2023-04-21T22:34:15.111Z,2.25
2023-04-21T22:36:43.501Z,2.60
2023-04-21T22:39:11.752Z,3.03
2023-04-21T22:41:40.077Z,3.80
2023-04-21T22:44:08.673Z,3.03
2023-04-21T22:46:38.457Z,4.28
2023-04-21T22:49:07.186Z,4.57
2023-04-21T22:51:36.421Z,3.65
2023-04-21T22:54:04.879Z,3.75
2023-04-21T22:56:33.163Z,4.47
2023-04-21T22:59:01.577Z,5.25
2023-04-21T23:01:29.927Z,2.58
2023-04-21T23:03:59.996Z,3.25
2023-04-21T23:06:28.428Z,3.80
2023-04-21T23:08:56.683Z,2.00
2023-04-21T23:11:24.906Z,1.77
2023-04-21T23:13:53.131Z,3.67
2023-04-21T23:16:21.325Z,3.13
2023-04-21T23:18:49.558Z,2.53
2023-04-21T23:21:19.158Z,1.80
2023-04-21T23:23:47.338Z,1.63
2023-04-21T23:26:16.101Z,2.47
2023-04-21T23:28:44.305Z,1.95
2023-04-21T23:31:12.692Z,2.90
2023-04-21T23:33:40.917Z,3.30
2023-04-21T23:36:09.657Z,2.20
2023-04-21T23:38:39.326Z,1.65
2023-04-21T23:41:07.692Z,2.42
2023-04-21T23:43:37.362Z,1.90
2023-04-21T23:46:06.100Z,2.25
2023-04-21T23:48:34.914Z,2.92
2023-04-21T23:51:03.397Z,2.13
2023-04-21T23:53:31.925Z,3.17
2023-04-21T23:56:01.631Z,3.08
2023-04-21T23:58:29.870Z,2.20
